West Bend, WI

02:27 PM CDT die 16o September, anno 2014 (GMT -0500)
Infinity Networking | Change Station
CLOSE
Current Station
Personal Weather Stations
Location: WestBend, WI
Elevation: 921 ft
Nearby Weather Stations

Elev 921 ft 43.43 °N, 88.16 °W | Updated 0 second ago

Clear
Serena
62.6 °F
Feels Like 62.6 °F
N
0.0
Ventus Variabilis Ventus from Magis Zephyrus quam Aquilo
Gusts 2.0 mph

Hodie
High -- | Low -- °F
--% Chance of Precip.
Yesterday
High -- | Low -- °F
Precip. -- in
6:33 AM 7:00 PM
Last Quarter, 43% visible
Pressio 30.14 in
Visibilitas 10.0 milia passuum
Clouds Serena
Frigus in quo Ros apparet 42 °F
Umor 46%
Rainfall 0.01 in
Snow Depth Not available.
UV 6 out of 12
Pollen 6.00 out of 12
Air Quality Not available.
Flu Activity Not available.
METAR KETB 161915Z AUTO 29008KT 10SM CLR 16/03 A3014 RMK AO2

More Conditions Fewer Conditions

Pressio 30.14 in
Visibilitas 10.0 milia passuum
Clouds Serena
Frigus in quo Ros apparet 42 °F
Umor 46%
Rainfall 0.01 in
Snow Depth Not available.
UV 6 out of 12
Pollen 6.00 out of 12
Air Quality Not available.
Flu Activity Not available.
METAR KETB 161915Z AUTO 29008KT 10SM CLR 16/03 A3014 RMK AO2

More Conditions Fewer Conditions

10-Day Weather Forecast

Almanac

Astronomy

Sep. 16, 2014 Rise Set
Actual Time 6:33 AM CDT 7:00 PM CDT
Civil Twilight 6:04 AM CDT 7:29 PM CDT
Nautical Twilight 5:30 AM CDT 8:03 PM CDT
Astronomical Twilight 4:55 AM CDT 8:38 PM CDT
Moon Nulla Ortus Lunae 2:32 PM CDT
Length Of Visible Light 13h 25m
Length of Day
12h 27m
Tomorrow will be 2m 56s shorter.
Last Quarter, 43% of the Moon is Illuminated
Hodie
Last Quarter
Sep 24
New
Oct 1
First Quarter
Oct 8
Full
Oct 15
Last Quarter

Today's Extremes

State Highs State Lows

Community

WunderPhotos

Upload Photos

1,753,860 photos uploaded!

WunderBlogs® & News

Nearby

Snow Depth

Station Depth Elevation
No new snow has been reported.

Earthquake Activity

City Distance Mag. Time & Date
No recent earthquake activity has been reported nearby.
Minimum magnitude displayed is 2.5.

Coastal Water Temperatures

Locus Calor
No Stations Reporting

Nearby Weather Stations